CPK weather

Chesapeake Regional Airport
Norfolk, Virginia, United States

Public forecast

Using degrees Fahrenheit for public forecast. Weather courtesy of forecast.io.

METAR (pilot weather report)

Retrieved 2019/04/26 16:35 UTC (0 seconds ago):

KCPK 261635Z AUTO 18011KT 10SM -VCTSRA SCT029 BKN035 OVC120 23/18 A2959 RMK AO2 LTG DSNT ALQS T02300184

TAF (pilot weather forecast)

Closest forecast is Norfolk International Airport, 14.9 nm (27.6 km) NNE. Retrieved 2019/04/26 12:22 UTC (4 hours ago):

TAF KORF 261120Z 2612/2712 20012G20KT P6SM SCT060 BKN150 FM261800 20017G28KT 5SM SHRA BKN050 OVC100 TEMPO 2620/2623 VRB35KT 2SM TSRA BR OVC030CB FM262300 25015G25KT 6SM SHRA OVC050 FM270200 29015G23KT P6SM SCT050 BKN150